Mt Bomar Mars — 9HCM9 — position and weather

sailwx.info

Track history (hours):
 
Tides and Currents Weather Stations Pressure Air Temp Water Temp Dewpoint Dewpoint Depression Visibility Wind Speed Wind Dir Waves Ship Positions

Mt Bomar Mars

Last reported at 2016-Sep-27 00:33 UTC. Time now 2016-Sep-27 08:46 UTC.
Position N 51°53' E 004°16'.

Length 107 m; draft 5.7 m.

Type: Ship. MMSI: 256784000.

Date/timePositionNaut miles runAvg speedWind from/ knotsBaromVisibWave heightAir tempDewpointWater temp
2016-Sep-27 00:33N 51°53' E 004°16'0 0.0
2016-Sep-26 20:33N 51°53' E 004°16'0 0.0
2016-Sep-26 19:27N 51°53' E 004°16'0 0.0
2016-Sep-26 15:33N 51°53' E 004°16'0 0.0
2016-Sep-26 13:30N 51°53' E 004°16'0 0.0
2016-Sep-26 11:33N 51°53' E 004°16'0 0.1
2016-Sep-26 08:33N 51°53' E 004°17'51 8.5
2016-Sep-26 02:32N 51°49' E 002°54'1010.5
2016-Sep-26 01:33N 51°46' E 002°38'1110.9
2016-Sep-26 00:33N 51°38' E 002°26'3411.3
2016-Sep-25 21:33N 51°11' E 001°55'8411.8
2016-Sep-25 14:27N 50°20' E 000°08'11611.2
2016-Sep-25 04:07N 49°50' W 002°45'15111.1
2016-Sep-24 14:34N 48°13' W 005°42'5011.1
2016-Sep-24 10:05N 47°27' W 005°16'611.5
2016-Sep-24 09:33N 47°21' W 005°12'7111.5
2016-Sep-24 03:22N 46°14' W 004°36'2111.6
2016-Sep-24 01:32N 45°54' W 004°24'1111.7
2016-Sep-24 00:33N 45°44' W 004°19'  
2016-Sep-20 08:30N 43°58' W 007°16'1010.1
2016-Sep-20 07:33N 43°59' W 007°30'310 8.6
2016-Sep-18 19:33N 39°10' W 009°57'39 9.8
2016-Sep-18 15:33N 38°30' W 009°52'1010.0
2016-Sep-18 14:33N 38°21' W 009°49'39 9.8
2016-Sep-18 10:34N 37°43' W 009°37'10 9.8
2016-Sep-18 09:33N 37°33' W 009°34'63 9.0
2016-Sep-18 02:33N 36°39' W 008°54'1110.7
2016-Sep-18 01:34N 36°41' W 008°41'1111.2
2016-Sep-18 00:34N 36°44' W 008°27'  
Track history (hours):
 
Tides and Currents Weather Stations Pressure Air Temp Water Temp Dewpoint Dewpoint Depression Visibility Wind Speed Wind Dir Waves Ship Positions

Mt Bomar Mars

Last reported at 2016-Sep-27 00:33 UTC. Time now 2016-Sep-27 08:46 UTC.
Position N 51°53' E 004°16'.

Length 107 m; draft 5.7 m.

Type: Ship. MMSI: 256784000.

Date/timePositionNaut miles runAvg speedWind from/ knotsBaromVisibWave heightAir tempDewpointWater temp
2016-Sep-27 00:33N 51°53' E 004°16'0 0.0
2016-Sep-26 20:33N 51°53' E 004°16'0 0.0
2016-Sep-26 19:27N 51°53' E 004°16'0 0.0
2016-Sep-26 15:33N 51°53' E 004°16'0 0.0
2016-Sep-26 13:30N 51°53' E 004°16'0 0.0
2016-Sep-26 11:33N 51°53' E 004°16'0 0.1
2016-Sep-26 08:33N 51°53' E 004°17'51 8.5
2016-Sep-26 02:32N 51°49' E 002°54'1010.5
2016-Sep-26 01:33N 51°46' E 002°38'1110.9
2016-Sep-26 00:33N 51°38' E 002°26'3411.3
2016-Sep-25 21:33N 51°11' E 001°55'8411.8
2016-Sep-25 14:27N 50°20' E 000°08'11611.2
2016-Sep-25 04:07N 49°50' W 002°45'15111.1
2016-Sep-24 14:34N 48°13' W 005°42'5011.1
2016-Sep-24 10:05N 47°27' W 005°16'611.5
2016-Sep-24 09:33N 47°21' W 005°12'7111.5
2016-Sep-24 03:22N 46°14' W 004°36'2111.6
2016-Sep-24 01:32N 45°54' W 004°24'1111.7
2016-Sep-24 00:33N 45°44' W 004°19'  
2016-Sep-20 08:30N 43°58' W 007°16'1010.1
2016-Sep-20 07:33N 43°59' W 007°30'310 8.6
2016-Sep-18 19:33N 39°10' W 009°57'39 9.8
2016-Sep-18 15:33N 38°30' W 009°52'1010.0
2016-Sep-18 14:33N 38°21' W 009°49'39 9.8
2016-Sep-18 10:34N 37°43' W 009°37'10 9.8
2016-Sep-18 09:33N 37°33' W 009°34'63 9.0
2016-Sep-18 02:33N 36°39' W 008°54'1110.7
2016-Sep-18 01:34N 36°41' W 008°41'1111.2
2016-Sep-18 00:34N 36°44' W 008°27'  

Dump ship's entire track history